sensor_id;sensor_type;location;lat;lon;timestamp;P1;durP1;ratioP1;P2;durP2;ratioP2
58101;SDS011;52034;51.926;6.320;2023-08-12T00:00:58;23.70;;;18.77;;
58101;SDS011;52034;51.926;6.320;2023-08-12T00:01:58;25.57;;;18.80;;
58101;SDS011;52034;51.926;6.320;2023-08-12T00:02:59;31.33;;;21.83;;
58101;SDS011;52034;51.926;6.320;2023-08-12T00:03:59;25.00;;;18.83;;
58101;SDS011;52034;51.926;6.320;2023-08-12T00:04:59;26.90;;;19.27;;
58101;SDS011;52034;51.926;6.320;2023-08-12T00:06:00;25.03;;;18.90;;
58101;SDS011;52034;51.926;6.320;2023-08-12T00:07:01;26.08;;;21.63;;
58101;SDS011;52034;51.926;6.320;2023-08-12T00:08:02;22.80;;;19.43;;
58101;SDS011;52034;51.926;6.320;2023-08-12T00:09:02;27.37;;;21.67;;
58101;SDS011;52034;51.926;6.320;2023-08-12T00:10:04;24.90;;;19.33;;
58101;SDS011;52034;51.926;6.320;2023-08-12T00:11:05;27.85;;;21.88;;
58101;SDS011;52034;51.926;6.320;2023-08-12T00:12:05;38.47;;;25.20;;
58101;SDS011;52034;51.926;6.320;2023-08-12T00:13:05;24.83;;;20.60;;
58101;SDS011;52034;51.926;6.320;2023-08-12T00:14:06;29.93;;;23.27;;
58101;SDS011;52034;51.926;6.320;2023-08-12T00:15:07;30.67;;;23.00;;
58101;SDS011;52034;51.926;6.320;2023-08-12T00:16:08;26.60;;;21.05;;
58101;SDS011;52034;51.926;6.320;2023-08-12T00:17:08;34.07;;;26.37;;
58101;SDS011;52034;51.926;6.320;2023-08-12T00:18:09;36.13;;;26.80;;
58101;SDS011;52034;51.926;6.320;2023-08-12T00:19:09;33.40;;;27.93;;
58101;SDS011;52034;51.926;6.320;2023-08-12T00:20:10;31.53;;;24.67;;
58101;SDS011;52034;51.926;6.320;2023-08-12T00:21:11;29.25;;;24.02;;
58101;SDS011;52034;51.926;6.320;2023-08-12T00:22:11;35.20;;;26.50;;
58101;SDS011;52034;51.926;6.320;2023-08-12T00:23:13;33.78;;;24.83;;
58101;SDS011;52034;51.926;6.320;2023-08-12T00:24:13;33.27;;;25.10;;
58101;SDS011;52034;51.926;6.320;2023-08-12T00:25:14;25.10;;;22.40;;
58101;SDS011;52034;51.926;6.320;2023-08-12T00:26:15;29.45;;;23.60;;
58101;SDS011;52034;51.926;6.320;2023-08-12T00:27:15;32.10;;;23.90;;
58101;SDS011;52034;51.926;6.320;2023-08-12T00:28:16;36.97;;;26.13;;
58101;SDS011;52034;51.926;6.320;2023-08-12T00:29:16;27.20;;;21.73;;
58101;SDS011;52034;51.926;6.320;2023-08-12T00:30:17;30.53;;;24.10;;
58101;SDS011;52034;51.926;6.320;2023-08-12T00:31:17;29.23;;;23.23;;
58101;SDS011;52034;51.926;6.320;2023-08-12T00:32:18;29.90;;;22.83;;
58101;SDS011;52034;51.926;6.320;2023-08-12T00:33:19;33.60;;;26.10;;
58101;SDS011;52034;51.926;6.320;2023-08-12T00:34:20;36.90;;;27.13;;
58101;SDS011;52034;51.926;6.320;2023-08-12T00:35:20;34.60;;;25.33;;
58101;SDS011;52034;51.926;6.320;2023-08-12T00:36:20;35.33;;;25.80;;
58101;SDS011;52034;51.926;6.320;2023-08-12T00:37:21;28.50;;;24.80;;
58101;SDS011;52034;51.926;6.320;2023-08-12T00:38:21;34.77;;;27.73;;
58101;SDS011;52034;51.926;6.320;2023-08-12T00:39:22;32.00;;;26.10;;
58101;SDS011;52034;51.926;6.320;2023-08-12T00:40:22;35.93;;;26.77;;
58101;SDS011;52034;51.926;6.320;2023-08-12T00:41:24;33.60;;;26.23;;
58101;SDS011;52034;51.926;6.320;2023-08-12T00:42:24;33.27;;;25.43;;
58101;SDS011;52034;51.926;6.320;2023-08-12T00:43:25;36.43;;;26.23;;
58101;SDS011;52034;51.926;6.320;2023-08-12T00:44:25;28.17;;;22.90;;
58101;SDS011;52034;51.926;6.320;2023-08-12T00:45:27;36.17;;;27.10;;
58101;SDS011;52034;51.926;6.320;2023-08-12T00:46:27;36.50;;;28.00;;
58101;SDS011;52034;51.926;6.320;2023-08-12T00:47:28;36.87;;;25.47;;
58101;SDS011;52034;51.926;6.320;2023-08-12T00:48:29;31.52;;;25.17;;
58101;SDS011;52034;51.926;6.320;2023-08-12T00:49:30;31.10;;;25.27;;
58101;SDS011;52034;51.926;6.320;2023-08-12T00:50:32;35.90;;;25.85;;
58101;SDS011;52034;51.926;6.320;2023-08-12T00:51:32;32.87;;;26.33;;
58101;SDS011;52034;51.926;6.320;2023-08-12T00:52:33;31.07;;;23.20;;
58101;SDS011;52034;51.926;6.320;2023-08-12T00:53:33;28.43;;;23.07;;
58101;SDS011;52034;51.926;6.320;2023-08-12T00:54:34;35.50;;;26.55;;
58101;SDS011;52034;51.926;6.320;2023-08-12T00:55:35;33.20;;;24.00;;
58101;SDS011;52034;51.926;6.320;2023-08-12T00:56:35;31.17;;;24.40;;
58101;SDS011;52034;51.926;6.320;2023-08-12T00:57:36;31.87;;;24.97;;
58101;SDS011;52034;51.926;6.320;2023-08-12T00:59:38;33.03;;;24.98;;
58101;SDS011;52034;51.926;6.320;2023-08-12T01:00:39;29.90;;;23.83;;
58101;SDS011;52034;51.926;6.320;2023-08-12T01:01:40;31.15;;;22.65;;
58101;SDS011;52034;51.926;6.320;2023-08-12T01:02:44;30.05;;;23.88;;
58101;SDS011;52034;51.926;6.320;2023-08-12T01:03:48;29.45;;;22.88;;
58101;SDS011;52034;51.926;6.320;2023-08-12T01:04:48;32.27;;;22.87;;
58101;SDS011;52034;51.926;6.320;2023-08-12T01:05:48;25.03;;;21.13;;
58101;SDS011;52034;51.926;6.320;2023-08-12T01:06:49;25.80;;;21.25;;
58101;SDS011;52034;51.926;6.320;2023-08-12T01:07:50;27.60;;;19.73;;
58101;SDS011;52034;51.926;6.320;2023-08-12T01:08:50;29.10;;;23.37;;
58101;SDS011;52034;51.926;6.320;2023-08-12T01:09:50;29.67;;;23.40;;
58101;SDS011;52034;51.926;6.320;2023-08-12T01:10:52;34.30;;;26.10;;
58101;SDS011;52034;51.926;6.320;2023-08-12T01:12:05;28.17;;;23.35;;
58101;SDS011;52034;51.926;6.320;2023-08-12T01:13:17;31.38;;;21.92;;
58101;SDS011;52034;51.926;6.320;2023-08-12T01:15:58;29.60;;;23.52;;
58101;SDS011;52034;51.926;6.320;2023-08-12T01:17:04;42.45;;;28.73;;
58101;SDS011;52034;51.926;6.320;2023-08-12T01:18:08;33.05;;;24.65;;
58101;SDS011;52034;51.926;6.320;2023-08-12T01:19:10;50.55;;;30.02;;
58101;SDS011;52034;51.926;6.320;2023-08-12T01:20:15;37.47;;;27.30;;
58101;SDS011;52034;51.926;6.320;2023-08-12T01:21:16;41.57;;;28.07;;
58101;SDS011;52034;51.926;6.320;2023-08-12T01:23:20;38.90;;;27.00;;
58101;SDS011;52034;51.926;6.320;2023-08-12T01:24:21;36.93;;;25.60;;
58101;SDS011;52034;51.926;6.320;2023-08-12T01:25:23;36.42;;;24.60;;
58101;SDS011;52034;51.926;6.320;2023-08-12T01:26:26;35.13;;;25.55;;
58101;SDS011;52034;51.926;6.320;2023-08-12T01:27:27;44.45;;;29.98;;
58101;SDS011;52034;51.926;6.320;2023-08-12T01:28:27;41.70;;;28.60;;
58101;SDS011;52034;51.926;6.320;2023-08-12T01:29:27;42.90;;;29.67;;
58101;SDS011;52034;51.926;6.320;2023-08-12T01:30:28;48.70;;;31.20;;
58101;SDS011;52034;51.926;6.320;2023-08-12T01:36:20;41.95;;;30.13;;
58101;SDS011;52034;51.926;6.320;2023-08-12T01:37:27;42.67;;;30.85;;
58101;SDS011;52034;51.926;6.320;2023-08-12T01:38:28;40.22;;;29.23;;
58101;SDS011;52034;51.926;6.320;2023-08-12T01:39:33;41.75;;;30.58;;
58101;SDS011;52034;51.926;6.320;2023-08-12T01:40:36;61.33;;;34.50;;
58101;SDS011;52034;51.926;6.320;2023-08-12T01:41:40;37.05;;;29.52;;
58101;SDS011;52034;51.926;6.320;2023-08-12T01:42:40;36.23;;;27.20;;
58101;SDS011;52034;51.926;6.320;2023-08-12T01:43:43;35.10;;;28.38;;
58101;SDS011;52034;51.926;6.320;2023-08-12T01:44:43;38.67;;;27.63;;
58101;SDS011;52034;51.926;6.320;2023-08-12T01:45:44;35.77;;;29.23;;
58101;SDS011;52034;51.926;6.320;2023-08-12T01:46:44;50.60;;;32.27;;
58101;SDS011;52034;51.926;6.320;2023-08-12T01:47:45;39.57;;;29.93;;
58101;SDS011;52034;51.926;6.320;2023-08-12T01:48:45;61.00;;;36.37;;
58101;SDS011;52034;51.926;6.320;2023-08-12T01:49:45;38.63;;;30.03;;
58101;SDS011;52034;51.926;6.320;2023-08-12T01:50:46;37.57;;;29.50;;
58101;SDS011;52034;51.926;6.320;2023-08-12T01:51:47;39.28;;;30.02;;
58101;SDS011;52034;51.926;6.320;2023-08-12T01:52:48;50.07;;;35.07;;
58101;SDS011;52034;51.926;6.320;2023-08-12T01:53:48;43.43;;;31.47;;
58101;SDS011;52034;51.926;6.320;2023-08-12T01:54:48;52.73;;;35.33;;
58101;SDS011;52034;51.926;6.320;2023-08-12T01:55:49;51.17;;;33.17;;
58101;SDS011;52034;51.926;6.320;2023-08-12T01:56:50;57.22;;;34.75;;
58101;SDS011;52034;51.926;6.320;2023-08-12T01:57:51;48.40;;;33.07;;
58101;SDS011;52034;51.926;6.320;2023-08-12T01:58:51;48.00;;;32.90;;
58101;SDS011;52034;51.926;6.320;2023-08-12T01:59:51;54.70;;;35.47;;
58101;SDS011;52034;51.926;6.320;2023-08-12T02:00:52;40.50;;;30.53;;
58101;SDS011;52034;51.926;6.320;2023-08-12T02:01:53;50.17;;;34.65;;
58101;SDS011;52034;51.926;6.320;2023-08-12T02:02:53;46.10;;;32.60;;
58101;SDS011;52034;51.926;6.320;2023-08-12T02:03:54;44.50;;;30.13;;
58101;SDS011;52034;51.926;6.320;2023-08-12T02:04:54;45.13;;;32.50;;
58101;SDS011;52034;51.926;6.320;2023-08-12T02:05:55;46.07;;;32.77;;
58101;SDS011;52034;51.926;6.320;2023-08-12T02:06:55;51.40;;;34.23;;
58101;SDS011;52034;51.926;6.320;2023-08-12T02:07:56;37.70;;;28.23;;
58101;SDS011;52034;51.926;6.320;2023-08-12T02:08:56;58.60;;;33.80;;
58101;SDS011;52034;51.926;6.320;2023-08-12T02:09:56;37.27;;;28.27;;
58101;SDS011;52034;51.926;6.320;2023-08-12T02:10:57;44.03;;;29.73;;
58101;SDS011;52034;51.926;6.320;2023-08-12T02:11:57;33.00;;;25.63;;
58101;SDS011;52034;51.926;6.320;2023-08-12T02:12:57;37.93;;;28.70;;
58101;SDS011;52034;51.926;6.320;2023-08-12T02:13:58;38.03;;;26.53;;
58101;SDS011;52034;51.926;6.320;2023-08-12T02:14:58;49.40;;;30.80;;
58101;SDS011;52034;51.926;6.320;2023-08-12T02:15:58;39.10;;;27.03;;
58101;SDS011;52034;51.926;6.320;2023-08-12T02:16:59;40.37;;;27.80;;
58101;SDS011;52034;51.926;6.320;2023-08-12T02:17:59;28.17;;;23.07;;
58101;SDS011;52034;51.926;6.320;2023-08-12T02:18:59;30.80;;;23.67;;
58101;SDS011;52034;51.926;6.320;2023-08-12T02:20:00;28.20;;;22.33;;
58101;SDS011;52034;51.926;6.320;2023-08-12T02:21:00;30.47;;;22.67;;
58101;SDS011;52034;51.926;6.320;2023-08-12T02:22:01;25.47;;;20.60;;
58101;SDS011;52034;51.926;6.320;2023-08-12T02:23:03;30.48;;;22.33;;
58101;SDS011;52034;51.926;6.320;2023-08-12T02:24:03;36.17;;;25.10;;
58101;SDS011;52034;51.926;6.320;2023-08-12T02:25:04;35.30;;;23.53;;
58101;SDS011;52034;51.926;6.320;2023-08-12T02:26:05;31.77;;;23.70;;
58101;SDS011;52034;51.926;6.320;2023-08-12T02:27:05;28.07;;;21.10;;
58101;SDS011;52034;51.926;6.320;2023-08-12T02:28:05;26.67;;;19.77;;
58101;SDS011;52034;51.926;6.320;2023-08-12T02:29:06;32.23;;;23.30;;
58101;SDS011;52034;51.926;6.320;2023-08-12T02:30:06;29.03;;;21.33;;
58101;SDS011;52034;51.926;6.320;2023-08-12T02:31:07;27.17;;;19.40;;
58101;SDS011;52034;51.926;6.320;2023-08-12T02:32:07;28.27;;;22.00;;
58101;SDS011;52034;51.926;6.320;2023-08-12T02:33:08;37.43;;;26.03;;
58101;SDS011;52034;51.926;6.320;2023-08-12T02:34:08;21.77;;;18.80;;
58101;SDS011;52034;51.926;6.320;2023-08-12T02:35:09;30.52;;;22.80;;
58101;SDS011;52034;51.926;6.320;2023-08-12T02:36:10;35.22;;;23.90;;
58101;SDS011;52034;51.926;6.320;2023-08-12T02:37:13;29.38;;;22.10;;
58101;SDS011;52034;51.926;6.320;2023-08-12T02:38:13;24.30;;;19.37;;
58101;SDS011;52034;51.926;6.320;2023-08-12T02:39:13;27.30;;;21.57;;
58101;SDS011;52034;51.926;6.320;2023-08-12T02:40:14;32.27;;;20.53;;
58101;SDS011;52034;51.926;6.320;2023-08-12T02:41:14;27.80;;;19.50;;
58101;SDS011;52034;51.926;6.320;2023-08-12T02:42:14;25.63;;;19.30;;
58101;SDS011;52034;51.926;6.320;2023-08-12T02:43:15;23.13;;;18.77;;
58101;SDS011;52034;51.926;6.320;2023-08-12T02:44:16;22.55;;;17.95;;
58101;SDS011;52034;51.926;6.320;2023-08-12T02:45:17;26.23;;;18.30;;
58101;SDS011;52034;51.926;6.320;2023-08-12T02:46:17;26.53;;;19.20;;
58101;SDS011;52034;51.926;6.320;2023-08-12T02:47:18;30.13;;;20.33;;
58101;SDS011;52034;51.926;6.320;2023-08-12T02:48:18;24.53;;;19.07;;
58101;SDS011;52034;51.926;6.320;2023-08-12T02:49:19;25.00;;;17.47;;
58101;SDS011;52034;51.926;6.320;2023-08-12T02:50:19;22.17;;;17.40;;
58101;SDS011;52034;51.926;6.320;2023-08-12T02:51:19;27.43;;;18.77;;
58101;SDS011;52034;51.926;6.320;2023-08-12T02:52:20;23.10;;;18.10;;
58101;SDS011;52034;51.926;6.320;2023-08-12T02:53:20;25.23;;;18.23;;
58101;SDS011;52034;51.926;6.320;2023-08-12T02:54:20;30.30;;;19.03;;
58101;SDS011;52034;51.926;6.320;2023-08-12T02:55:21;28.70;;;19.37;;
58101;SDS011;52034;51.926;6.320;2023-08-12T02:56:21;27.83;;;18.60;;
58101;SDS011;52034;51.926;6.320;2023-08-12T02:57:21;21.63;;;16.97;;
58101;SDS011;52034;51.926;6.320;2023-08-12T02:58:22;22.13;;;15.40;;
58101;SDS011;52034;51.926;6.320;2023-08-12T02:59:22;20.77;;;15.67;;
58101;SDS011;52034;51.926;6.320;2023-08-12T03:00:25;19.98;;;16.25;;
58101;SDS011;52034;51.926;6.320;2023-08-12T03:01:25;30.27;;;19.97;;
58101;SDS011;52034;51.926;6.320;2023-08-12T03:02:25;26.70;;;17.03;;
58101;SDS011;52034;51.926;6.320;2023-08-12T03:03:26;24.20;;;17.20;;
58101;SDS011;52034;51.926;6.320;2023-08-12T03:04:26;23.97;;;16.07;;
58101;SDS011;52034;51.926;6.320;2023-08-12T03:05:27;26.70;;;18.00;;
58101;SDS011;52034;51.926;6.320;2023-08-12T03:06:28;22.50;;;17.10;;
58101;SDS011;52034;51.926;6.320;2023-08-12T03:07:28;28.37;;;18.03;;
58101;SDS011;52034;51.926;6.320;2023-08-12T03:08:28;19.90;;;16.10;;
58101;SDS011;52034;51.926;6.320;2023-08-12T03:09:29;22.30;;;16.20;;
58101;SDS011;52034;51.926;6.320;2023-08-12T03:10:30;23.50;;;16.17;;
58101;SDS011;52034;51.926;6.320;2023-08-12T03:11:31;29.48;;;18.25;;
58101;SDS011;52034;51.926;6.320;2023-08-12T03:12:34;22.67;;;15.65;;
58101;SDS011;52034;51.926;6.320;2023-08-12T03:13:35;27.35;;;17.15;;
58101;SDS011;52034;51.926;6.320;2023-08-12T03:14:36;26.45;;;17.35;;
58101;SDS011;52034;51.926;6.320;2023-08-12T03:15:39;22.80;;;17.00;;
58101;SDS011;52034;51.926;6.320;2023-08-12T03:16:43;17.38;;;14.65;;
58101;SDS011;52034;51.926;6.320;2023-08-12T03:17:44;29.43;;;18.20;;
58101;SDS011;52034;51.926;6.320;2023-08-12T03:18:44;25.53;;;15.97;;
58101;SDS011;52034;51.926;6.320;2023-08-12T03:19:45;25.83;;;17.07;;
58101;SDS011;52034;51.926;6.320;2023-08-12T03:20:45;24.53;;;16.33;;
58101;SDS011;52034;51.926;6.320;2023-08-12T03:21:45;21.83;;;15.93;;
58101;SDS011;52034;51.926;6.320;2023-08-12T03:22:46;25.63;;;16.30;;
58101;SDS011;52034;51.926;6.320;2023-08-12T03:23:46;24.10;;;16.77;;
58101;SDS011;52034;51.926;6.320;2023-08-12T03:24:47;19.70;;;15.50;;
58101;SDS011;52034;51.926;6.320;2023-08-12T03:26:49;21.05;;;15.02;;
58101;SDS011;52034;51.926;6.320;2023-08-12T03:27:49;18.37;;;13.87;;
58101;SDS011;52034;51.926;6.320;2023-08-12T03:28:49;19.73;;;14.73;;
58101;SDS011;52034;51.926;6.320;2023-08-12T03:29:52;24.48;;;16.88;;
58101;SDS011;52034;51.926;6.320;2023-08-12T03:30:53;25.33;;;15.03;;
58101;SDS011;52034;51.926;6.320;2023-08-12T03:31:55;22.30;;;15.02;;
58101;SDS011;52034;51.926;6.320;2023-08-12T03:34:00;18.65;;;14.18;;
58101;SDS011;52034;51.926;6.320;2023-08-12T03:35:03;20.88;;;13.90;;
58101;SDS011;52034;51.926;6.320;2023-08-12T03:36:04;25.77;;;17.42;;
58101;SDS011;52034;51.926;6.320;2023-08-12T03:37:04;20.03;;;14.37;;
58101;SDS011;52034;51.926;6.320;2023-08-12T03:38:06;21.92;;;15.48;;
58101;SDS011;52034;51.926;6.320;2023-08-12T03:39:06;24.43;;;15.67;;
58101;SDS011;52034;51.926;6.320;2023-08-12T03:40:07;23.77;;;16.07;;
58101;SDS011;52034;51.926;6.320;2023-08-12T03:41:09;21.02;;;15.27;;
58101;SDS011;52034;51.926;6.320;2023-08-12T03:42:10;18.23;;;12.60;;
58101;SDS011;52034;51.926;6.320;2023-08-12T03:43:11;19.52;;;13.60;;
58101;SDS011;52034;51.926;6.320;2023-08-12T03:44:12;20.90;;;16.00;;
58101;SDS011;52034;51.926;6.320;2023-08-12T03:45:12;20.27;;;13.60;;
58101;SDS011;52034;51.926;6.320;2023-08-12T03:46:13;19.33;;;14.90;;
58101;SDS011;52034;51.926;6.320;2023-08-12T03:47:13;23.17;;;15.60;;
58101;SDS011;52034;51.926;6.320;2023-08-12T03:48:15;23.10;;;14.55;;
58101;SDS011;52034;51.926;6.320;2023-08-12T03:49:15;22.30;;;16.43;;
58101;SDS011;52034;51.926;6.320;2023-08-12T03:50:16;22.35;;;16.02;;
58101;SDS011;52034;51.926;6.320;2023-08-12T03:51:17;20.85;;;14.02;;
58101;SDS011;52034;51.926;6.320;2023-08-12T03:52:18;20.63;;;14.17;;
58101;SDS011;52034;51.926;6.320;2023-08-12T03:53:18;16.07;;;13.50;;
58101;SDS011;52034;51.926;6.320;2023-08-12T03:54:19;20.93;;;15.57;;
58101;SDS011;52034;51.926;6.320;2023-08-12T03:55:19;18.90;;;14.47;;
58101;SDS011;52034;51.926;6.320;2023-08-12T03:56:19;21.23;;;15.23;;
58101;SDS011;52034;51.926;6.320;2023-08-12T03:57:20;23.13;;;13.40;;
58101;SDS011;52034;51.926;6.320;2023-08-12T03:58:21;22.63;;;13.80;;
58101;SDS011;52034;51.926;6.320;2023-08-12T03:59:22;20.23;;;13.53;;
58101;SDS011;52034;51.926;6.320;2023-08-12T04:00:22;20.20;;;14.03;;
58101;SDS011;52034;51.926;6.320;2023-08-12T04:01:27;15.90;;;13.30;;
58101;SDS011;52034;51.926;6.320;2023-08-12T04:02:27;20.30;;;14.13;;
58101;SDS011;52034;51.926;6.320;2023-08-12T04:03:28;20.00;;;13.93;;
58101;SDS011;52034;51.926;6.320;2023-08-12T04:04:28;24.70;;;16.00;;
58101;SDS011;52034;51.926;6.320;2023-08-12T04:05:28;25.93;;;16.93;;
58101;SDS011;52034;51.926;6.320;2023-08-12T04:06:29;22.90;;;16.20;;
58101;SDS011;52034;51.926;6.320;2023-08-12T04:07:29;21.10;;;15.50;;
58101;SDS011;52034;51.926;6.320;2023-08-12T04:08:31;23.17;;;14.32;;
58101;SDS011;52034;51.926;6.320;2023-08-12T04:09:32;25.43;;;17.13;;
58101;SDS011;52034;51.926;6.320;2023-08-12T04:10:32;24.13;;;17.13;;
58101;SDS011;52034;51.926;6.320;2023-08-12T04:11:33;25.13;;;17.33;;
58101;SDS011;52034;51.926;6.320;2023-08-12T04:12:33;21.67;;;15.17;;
58101;SDS011;52034;51.926;6.320;2023-08-12T04:13:33;25.00;;;16.10;;
58101;SDS011;52034;51.926;6.320;2023-08-12T04:14:34;22.43;;;16.40;;
58101;SDS011;52034;51.926;6.320;2023-08-12T04:15:34;21.30;;;16.43;;
58101;SDS011;52034;51.926;6.320;2023-08-12T04:16:34;26.60;;;17.07;;
58101;SDS011;52034;51.926;6.320;2023-08-12T04:17:35;21.40;;;15.10;;
58101;SDS011;52034;51.926;6.320;2023-08-12T04:18:37;21.35;;;15.85;;
58101;SDS011;52034;51.926;6.320;2023-08-12T04:19:37;22.87;;;15.13;;
58101;SDS011;52034;51.926;6.320;2023-08-12T04:20:38;24.30;;;15.93;;
58101;SDS011;52034;51.926;6.320;2023-08-12T04:21:39;21.13;;;15.63;;
58101;SDS011;52034;51.926;6.320;2023-08-12T04:22:39;19.77;;;14.30;;
58101;SDS011;52034;51.926;6.320;2023-08-12T04:23:39;22.00;;;15.57;;
58101;SDS011;52034;51.926;6.320;2023-08-12T04:24:40;25.95;;;16.30;;
58101;SDS011;52034;51.926;6.320;2023-08-12T04:25:44;28.30;;;19.63;;
58101;SDS011;52034;51.926;6.320;2023-08-12T04:26:46;27.23;;;18.83;;
58101;SDS011;52034;51.926;6.320;2023-08-12T04:27:47;25.53;;;17.13;;
58101;SDS011;52034;51.926;6.320;2023-08-12T04:28:49;24.45;;;17.80;;
58101;SDS011;52034;51.926;6.320;2023-08-12T04:29:50;33.93;;;21.73;;
58101;SDS011;52034;51.926;6.320;2023-08-12T04:30:50;26.43;;;20.47;;
58101;SDS011;52034;51.926;6.320;2023-08-12T04:31:51;23.07;;;19.87;;
58101;SDS011;52034;51.926;6.320;2023-08-12T04:32:53;38.10;;;25.50;;
58101;SDS011;52034;51.926;6.320;2023-08-12T04:33:53;26.67;;;21.27;;
58101;SDS011;52034;51.926;6.320;2023-08-12T04:35:55;25.92;;;21.85;;
58101;SDS011;52034;51.926;6.320;2023-08-12T04:36:58;30.65;;;21.90;;
58101;SDS011;52034;51.926;6.320;2023-08-12T04:37:58;33.30;;;23.50;;
58101;SDS011;52034;51.926;6.320;2023-08-12T04:38:59;32.92;;;23.30;;
58101;SDS011;52034;51.926;6.320;2023-08-12T04:40:00;28.77;;;22.17;;
58101;SDS011;52034;51.926;6.320;2023-08-12T04:41:01;26.23;;;19.80;;
58101;SDS011;52034;51.926;6.320;2023-08-12T04:42:02;25.80;;;20.73;;
58101;SDS011;52034;51.926;6.320;2023-08-12T04:43:03;28.33;;;20.80;;
58101;SDS011;52034;51.926;6.320;2023-08-12T04:44:04;26.17;;;20.50;;
58101;SDS011;52034;51.926;6.320;2023-08-12T04:45:05;34.47;;;24.27;;
58101;SDS011;52034;51.926;6.320;2023-08-12T04:46:07;31.73;;;22.23;;
58101;SDS011;52034;51.926;6.320;2023-08-12T04:47:08;27.70;;;22.02;;
58101;SDS011;52034;51.926;6.320;2023-08-12T04:48:10;24.88;;;19.33;;
58101;SDS011;52034;51.926;6.320;2023-08-12T04:49:11;31.03;;;21.97;;
58101;SDS011;52034;51.926;6.320;2023-08-12T04:50:11;30.63;;;22.60;;
58101;SDS011;52034;51.926;6.320;2023-08-12T04:51:11;33.17;;;22.37;;
58101;SDS011;52034;51.926;6.320;2023-08-12T04:52:12;25.77;;;21.27;;
58101;SDS011;52034;51.926;6.320;2023-08-12T04:53:12;34.73;;;24.60;;
58101;SDS011;52034;51.926;6.320;2023-08-12T04:54:14;37.17;;;24.70;;
58101;SDS011;52034;51.926;6.320;2023-08-12T04:55:14;31.50;;;22.60;;
58101;SDS011;52034;51.926;6.320;2023-08-12T04:56:16;33.10;;;23.75;;
58101;SDS011;52034;51.926;6.320;2023-08-12T04:57:19;31.30;;;22.33;;
58101;SDS011;52034;51.926;6.320;2023-08-12T04:58:19;36.10;;;25.20;;
58101;SDS011;52034;51.926;6.320;2023-08-12T04:59:20;38.15;;;26.15;;
58101;SDS011;52034;51.926;6.320;2023-08-12T05:00:21;22.83;;;18.37;;
58101;SDS011;52034;51.926;6.320;2023-08-12T05:01:22;31.02;;;23.98;;
58101;SDS011;52034;51.926;6.320;2023-08-12T05:02:23;39.40;;;27.42;;
58101;SDS011;52034;51.926;6.320;2023-08-12T05:03:23;42.47;;;28.87;;
58101;SDS011;52034;51.926;6.320;2023-08-12T05:04:26;38.72;;;27.73;;
58101;SDS011;52034;51.926;6.320;2023-08-12T05:05:27;44.65;;;28.10;;
58101;SDS011;52034;51.926;6.320;2023-08-12T05:06:27;30.67;;;23.10;;
58101;SDS011;52034;51.926;6.320;2023-08-12T05:07:28;32.23;;;24.77;;
58101;SDS011;52034;51.926;6.320;2023-08-12T05:08:28;36.23;;;25.57;;
58101;SDS011;52034;51.926;6.320;2023-08-12T05:09:29;34.33;;;24.43;;
58101;SDS011;52034;51.926;6.320;2023-08-12T05:10:30;40.28;;;27.63;;
58101;SDS011;52034;51.926;6.320;2023-08-12T05:11:31;44.00;;;28.37;;
58101;SDS011;52034;51.926;6.320;2023-08-12T05:12:32;33.28;;;24.60;;
58101;SDS011;52034;51.926;6.320;2023-08-12T05:13:34;37.90;;;26.83;;
58101;SDS011;52034;51.926;6.320;2023-08-12T05:14:35;31.10;;;25.35;;
58101;SDS011;52034;51.926;6.320;2023-08-12T05:15:35;31.77;;;24.37;;
58101;SDS011;52034;51.926;6.320;2023-08-12T05:16:37;34.58;;;23.42;;
58101;SDS011;52034;51.926;6.320;2023-08-12T05:17:37;42.73;;;27.80;;
58101;SDS011;52034;51.926;6.320;2023-08-12T05:18:38;40.78;;;26.23;;
58101;SDS011;52034;51.926;6.320;2023-08-12T05:19:39;41.10;;;28.63;;
58101;SDS011;52034;51.926;6.320;2023-08-12T05:20:39;34.13;;;25.77;;
58101;SDS011;52034;51.926;6.320;2023-08-12T05:21:41;33.28;;;25.58;;
58101;SDS011;52034;51.926;6.320;2023-08-12T05:22:42;39.87;;;27.53;;
58101;SDS011;52034;51.926;6.320;2023-08-12T05:23:42;33.87;;;25.80;;
58101;SDS011;52034;51.926;6.320;2023-08-12T05:24:42;35.87;;;25.87;;
58101;SDS011;52034;51.926;6.320;2023-08-12T05:25:43;23.87;;;19.87;;
58101;SDS011;52034;51.926;6.320;2023-08-12T05:26:43;24.30;;;20.63;;
58101;SDS011;52034;51.926;6.320;2023-08-12T05:27:43;32.77;;;25.00;;
58101;SDS011;52034;51.926;6.320;2023-08-12T05:28:44;29.27;;;22.83;;
58101;SDS011;52034;51.926;6.320;2023-08-12T05:29:44;26.73;;;20.67;;
58101;SDS011;52034;51.926;6.320;2023-08-12T05:30:44;29.20;;;21.93;;
58101;SDS011;52034;51.926;6.320;2023-08-12T05:31:45;28.87;;;21.83;;
58101;SDS011;52034;51.926;6.320;2023-08-12T05:32:45;29.80;;;22.80;;
58101;SDS011;52034;51.926;6.320;2023-08-12T05:33:45;30.03;;;21.33;;
58101;SDS011;52034;51.926;6.320;2023-08-12T05:34:46;28.07;;;20.67;;
58101;SDS011;52034;51.926;6.320;2023-08-12T05:35:50;39.58;;;23.73;;
58101;SDS011;52034;51.926;6.320;2023-08-12T05:36:50;26.27;;;20.90;;
58101;SDS011;52034;51.926;6.320;2023-08-12T05:37:50;28.13;;;19.10;;
58101;SDS011;52034;51.926;6.320;2023-08-12T05:38:51;25.90;;;19.97;;
58101;SDS011;52034;51.926;6.320;2023-08-12T05:39:51;26.23;;;20.50;;
58101;SDS011;52034;51.926;6.320;2023-08-12T05:40:51;29.43;;;21.30;;
58101;SDS011;52034;51.926;6.320;2023-08-12T05:41:52;29.73;;;20.43;;
58101;SDS011;52034;51.926;6.320;2023-08-12T05:42:52;24.37;;;18.57;;
58101;SDS011;52034;51.926;6.320;2023-08-12T05:43:53;24.73;;;19.47;;
58101;SDS011;52034;51.926;6.320;2023-08-12T05:44:53;26.60;;;21.00;;
58101;SDS011;52034;51.926;6.320;2023-08-12T05:45:53;32.43;;;24.77;;
58101;SDS011;52034;51.926;6.320;2023-08-12T05:46:54;42.30;;;26.17;;
58101;SDS011;52034;51.926;6.320;2023-08-12T05:47:54;43.53;;;27.43;;
58101;SDS011;52034;51.926;6.320;2023-08-12T05:48:54;39.93;;;26.00;;
58101;SDS011;52034;51.926;6.320;2023-08-12T05:49:55;36.87;;;24.40;;
58101;SDS011;52034;51.926;6.320;2023-08-12T05:50:55;33.50;;;24.13;;
58101;SDS011;52034;51.926;6.320;2023-08-12T05:51:55;34.37;;;24.27;;
58101;SDS011;52034;51.926;6.320;2023-08-12T05:52:56;30.03;;;23.60;;
58101;SDS011;52034;51.926;6.320;2023-08-12T05:53:56;31.20;;;23.07;;
58101;SDS011;52034;51.926;6.320;2023-08-12T05:54:56;39.30;;;26.63;;
58101;SDS011;52034;51.926;6.320;2023-08-12T05:55:57;34.43;;;25.53;;
58101;SDS011;52034;51.926;6.320;2023-08-12T05:56:57;38.07;;;26.53;;
58101;SDS011;52034;51.926;6.320;2023-08-12T05:57:58;30.87;;;22.90;;
58101;SDS011;52034;51.926;6.320;2023-08-12T05:58:58;29.03;;;22.63;;
58101;SDS011;52034;51.926;6.320;2023-08-12T05:59:58;27.20;;;21.67;;
58101;SDS011;52034;51.926;6.320;2023-08-12T06:00:59;31.70;;;21.53;;
58101;SDS011;52034;51.926;6.320;2023-08-12T06:01:59;35.53;;;23.23;;
58101;SDS011;52034;51.926;6.320;2023-08-12T06:03:00;31.23;;;22.37;;
58101;SDS011;52034;51.926;6.320;2023-08-12T06:04:00;30.47;;;22.60;;
58101;SDS011;52034;51.926;6.320;2023-08-12T06:05:01;26.93;;;20.20;;
58101;SDS011;52034;51.926;6.320;2023-08-12T06:06:02;28.90;;;21.33;;
58101;SDS011;52034;51.926;6.320;2023-08-12T06:07:03;27.23;;;20.57;;
58101;SDS011;52034;51.926;6.320;2023-08-12T06:08:03;37.53;;;24.33;;